Time;durP1;ratioP1;P1;durP2;ratioP2;P2;SDS_P1;SDS_P2;PMS_P1;PMS_P2;Temp;Humidity;BMP_temperature;BMP_pressure;BME280_temperature;BME280_humidity;BME280_pressure;Samples;Min_cycle;Max_cycle;Signal;HPM_P1;HPM_P2
2022/09/13 00:02:01;;;;;;;13.43;12.00;;;18.30;99.90;;;;;;5053072;28;20507;-73
2022/09/13 00:04:26;;;;;;;12.95;11.75;;;18.40;99.90;;;;;;5063287;28;20025;-74
2022/09/13 00:06:52;;;;;;;13.65;12.45;;;18.30;99.90;;;;;;5053115;28;20028;-73
2022/09/13 00:09:17;;;;;;;13.70;12.40;;;18.30;99.90;;;;;;5052568;28;20059;-74
2022/09/13 00:11:43;;;;;;;13.15;11.85;;;18.30;99.90;;;;;;5063903;28;20025;-73
2022/09/13 00:14:09;;;;;;;14.85;13.20;;;18.30;99.90;;;;;;5053003;28;20108;-73
2022/09/13 00:16:34;;;;;;;14.68;13.18;;;18.30;99.90;;;;;;5050978;28;20032;-73
2022/09/13 00:19:00;;;;;;;13.38;12.05;;;18.20;99.90;;;;;;5059799;28;20601;-74
2022/09/13 00:21:26;;;;;;;16.88;14.23;;;18.30;99.90;;;;;;5072075;28;20090;-73
2022/09/13 00:23:53;;;;;;;14.07;11.90;;;18.30;99.90;;;;;;5072817;28;20013;-73
2022/09/13 00:26:25;;;;;;;13.38;12.10;;;18.30;99.90;;;;;;5072395;28;20048;-73
2022/09/13 00:28:52;;;;;;;14.98;13.48;;;18.30;99.90;;;;;;5071772;28;20358;-73
2022/09/13 00:31:22;;;;;;;15.00;13.40;;;18.30;99.90;;;;;;5071830;28;20029;-74
2022/09/13 00:33:49;;;;;;;16.10;13.43;;;18.30;99.90;;;;;;5072518;28;20036;-73
2022/09/13 00:36:15;;;;;;;14.43;12.82;;;18.30;99.90;;;;;;5072102;28;20032;-73
2022/09/13 00:38:42;;;;;;;13.65;12.40;;;18.50;99.90;;;;;;5072489;28;20024;-74
2022/09/13 00:41:11;;;;;;;15.55;13.93;;;18.30;99.90;;;;;;5072519;28;20037;-73
2022/09/13 00:43:49;;;;;;;13.90;12.60;;;18.30;99.90;;;;;;5056605;28;20049;-73
2022/09/13 00:46:41;;;;;;;15.40;14.00;;;18.40;99.90;;;;;;5046038;28;20028;-74
2022/09/13 00:49:12;;;;;;;15.77;14.15;;;18.60;99.90;;;;;;5069488;28;20159;-74
2022/09/13 00:51:40;;;;;;;15.32;13.82;;;18.40;99.90;;;;;;5062012;28;20024;-74
2022/09/13 00:54:06;;;;;;;13.30;11.90;;;18.30;99.90;;;;;;5072172;28;20017;-74
2022/09/13 00:56:46;;;;;;;14.70;12.93;;;18.30;99.90;;;;;;5071824;28;20509;-74
2022/09/13 00:59:17;;;;;;;13.38;11.98;;;18.30;99.90;;;;;;5071632;28;20534;-74
2022/09/13 01:01:48;;;;;;;14.82;13.45;;;18.00;99.90;;;;;;5071682;28;20033;-74
2022/09/13 01:04:16;;;;;;;14.50;13.07;;;18.50;99.90;;;;;;5071591;28;20130;-74
2022/09/13 01:06:42;;;;;;;15.30;13.70;;;18.40;99.90;;;;;;5072172;28;20111;-74
2022/09/13 01:09:10;;;;;;;15.60;12.82;;;18.40;99.90;;;;;;5071916;28;20161;-73
2022/09/13 01:11:46;;;;;;;14.95;13.55;;;18.40;99.90;;;;;;5071769;28;20024;-74
2022/09/13 01:14:12;;;;;;;14.38;13.07;;;18.50;99.90;;;;;;5045673;28;20478;-74
2022/09/13 01:16:37;;;;;;;17.23;15.52;;;19.70;99.90;;;;;;5069240;28;20016;-74
2022/09/13 01:19:03;;;;;;;16.90;15.15;;;18.40;99.90;;;;;;5059454;28;20108;-74
2022/09/13 01:21:50;;;;;;;15.85;14.25;;;18.60;99.90;;;;;;5071243;28;20032;-74
2022/09/13 01:24:45;;;;;;;17.02;15.23;;;18.60;99.90;;;;;;5047954;28;20029;-74
2022/09/13 01:27:27;;;;;;;15.07;13.60;;;18.60;99.90;;;;;;5071310;28;20050;-74
2022/09/13 01:30:10;;;;;;;16.63;14.90;;;18.50;99.90;;;;;;5069975;28;20027;-74
2022/09/13 01:32:50;;;;;;;16.70;14.45;;;18.60;99.90;;;;;;5045336;28;20019;-74
2022/09/13 01:35:32;;;;;;;17.33;15.23;;;18.40;99.90;;;;;;5070965;28;20020;-74
2022/09/13 01:38:03;;;;;;;15.65;14.15;;;18.40;99.90;;;;;;5071613;28;20465;-74
2022/09/13 01:40:43;;;;;;;14.57;13.25;;;18.40;99.90;;;;;;5069111;28;20025;-74
2022/09/13 01:43:47;;;;;;;14.93;13.55;;;18.40;99.90;;;;;;5059505;28;20052;-73
2022/09/13 01:46:25;;;;;;;15.93;13.73;;;18.40;99.90;;;;;;5056409;28;20039;-74
2022/09/13 01:49:12;;;;;;;17.55;15.85;;;18.40;99.90;;;;;;5071037;28;20115;-74
2022/09/13 01:52:16;;;;;;;18.08;16.33;;;18.30;99.90;;;;;;5071203;28;20024;-74
2022/09/13 01:54:49;;;;;;;17.65;16.05;;;18.40;99.90;;;;;;5029017;28;20040;-74
2022/09/13 01:57:21;;;;;;;18.00;16.15;;;18.40;99.90;;;;;;5028400;28;20356;-74
2022/09/13 01:59:52;;;;;;;17.60;15.80;;;18.50;99.90;;;;;;5016120;28;20034;-74
2022/09/13 02:02:41;;;;;;;17.75;15.88;;;18.40;99.90;;;;;;5016139;28;20495;-74
2022/09/13 02:05:15;;;;;;;18.67;16.73;;;18.40;99.90;;;;;;5017435;28;20042;-74
2022/09/13 02:07:45;;;;;;;18.55;16.75;;;18.40;99.90;;;;;;5028640;28;20025;-74
2022/09/13 02:10:25;;;;;;;19.20;16.63;;;18.30;99.90;;;;;;5028320;28;20041;-74
2022/09/13 02:12:52;;;;;;;17.75;16.05;;;18.30;99.90;;;;;;5011456;28;20044;-74
2022/09/13 02:15:23;;;;;;;18.55;16.40;;;18.20;99.90;;;;;;5028150;28;20044;-74
2022/09/13 02:18:08;;;;;;;17.02;15.48;;;18.30;99.90;;;;;;5017598;28;20034;-74
2022/09/13 02:20:38;;;;;;;19.60;16.27;;;18.30;99.90;;;;;;5027900;28;20051;-74
2022/09/13 02:23:12;;;;;;;18.25;16.33;;;19.20;99.90;;;;;;5028469;28;20036;-74
2022/09/13 02:25:40;;;;;;;19.55;17.73;;;18.40;99.90;;;;;;5014513;28;20083;-74
2022/09/13 02:28:09;;;;;;;20.33;18.23;;;18.30;99.90;;;;;;5011115;28;20027;-74
2022/09/13 02:30:40;;;;;;;20.30;18.23;;;18.20;99.90;;;;;;5036305;28;20033;-74
2022/09/13 02:33:25;;;;;;;19.38;17.42;;;18.30;99.90;;;;;;5044491;28;20052;-73
2022/09/13 02:36:04;;;;;;;19.92;17.80;;;18.30;99.90;;;;;;5069926;28;20036;-74
2022/09/13 02:38:36;;;;;;;19.45;17.73;;;18.50;99.90;;;;;;5069935;28;20024;-74
2022/09/13 02:41:19;;;;;;;18.85;16.98;;;18.30;99.90;;;;;;5070405;28;20044;-74
2022/09/13 02:43:52;;;;;;;18.38;16.58;;;18.30;99.90;;;;;;5069667;28;20044;-74
2022/09/13 02:46:27;;;;;;;19.08;17.25;;;18.30;99.90;;;;;;5062260;28;20028;-74
2022/09/13 02:49:25;;;;;;;16.52;15.02;;;18.40;99.90;;;;;;5065082;28;20024;-74
2022/09/13 02:52:01;;;;;;;18.15;16.27;;;18.40;99.90;;;;;;5069665;28;20032;-74
2022/09/13 02:54:40;;;;;;;17.92;15.63;;;18.40;99.90;;;;;;5068264;28;20019;-74
2022/09/13 02:57:19;;;;;;;18.83;16.92;;;18.50;99.90;;;;;;5063324;28;20029;-74
2022/09/13 02:59:46;;;;;;;18.25;16.52;;;18.40;99.90;;;;;;5041617;28;20020;-74
2022/09/13 03:02:15;;;;;;;16.73;15.23;;;18.40;99.90;;;;;;5069515;28;20040;-74
2022/09/13 03:04:41;;;;;;;18.08;16.38;;;18.40;99.90;;;;;;5069893;28;20469;-74
2022/09/13 03:07:11;;;;;;;20.05;16.25;;;18.30;99.90;;;;;;5056584;28;20036;-74
2022/09/13 03:09:47;;;;;;;19.80;17.40;;;19.30;99.90;;;;;;5068015;28;20465;-74
2022/09/13 03:12:51;;;;;;;19.65;17.60;;;18.30;99.90;;;;;;5069011;28;20111;-74
2022/09/13 03:15:35;;;;;;;17.52;15.93;;;18.20;99.90;;;;;;5052898;28;20025;-74
2022/09/13 03:18:38;;;;;;;17.48;15.85;;;18.30;99.90;;;;;;5049788;28;20029;-74
2022/09/13 03:21:18;;;;;;;19.17;16.90;;;18.30;99.90;;;;;;5049757;28;20036;-74
2022/09/13 03:24:06;;;;;;;18.52;16.70;;;18.30;99.90;;;;;;5069867;28;20362;-74
2022/09/13 03:26:45;;;;;;;20.05;18.25;;;18.30;99.90;;;;;;5069800;28;20075;-74
2022/09/13 03:29:19;;;;;;;18.88;16.88;;;18.30;99.90;;;;;;5043648;28;20024;-74
2022/09/13 03:32:10;;;;;;;18.55;16.83;;;18.30;99.90;;;;;;5069067;28;20021;-74
2022/09/13 03:34:58;;;;;;;18.70;16.75;;;18.30;99.90;;;;;;5048921;28;20078;-74
2022/09/13 03:37:55;;;;;;;17.63;15.75;;;18.30;99.90;;;;;;5046442;28;20017;-74
2022/09/13 03:40:48;;;;;;;19.55;17.73;;;18.20;99.90;;;;;;5063635;28;20035;-74
2022/09/13 03:43:34;;;;;;;20.70;18.80;;;18.20;99.90;;;;;;5064917;28;20052;-74
2022/09/13 03:46:06;;;;;;;19.35;17.25;;;18.20;99.90;;;;;;5067996;28;20377;-74
2022/09/13 03:48:36;;;;;;;19.90;17.92;;;18.20;99.90;;;;;;5069661;28;20611;-74
2022/09/13 03:51:04;;;;;;;19.63;17.63;;;18.20;99.90;;;;;;5069606;28;20043;-74
2022/09/13 03:53:32;;;;;;;19.67;17.83;;;18.20;99.90;;;;;;5069680;28;20020;-74
2022/09/13 03:55:57;;;;;;;21.27;19.23;;;18.10;99.90;;;;;;5067591;28;20032;-74
2022/09/13 03:58:25;;;;;;;20.50;18.38;;;18.10;99.90;;;;;;5069527;28;20027;-74
2022/09/13 04:00:53;;;;;;;22.65;20.35;;;18.00;99.90;;;;;;5068983;28;20060;-74
2022/09/13 04:03:19;;;;;;;21.25;19.15;;;18.10;99.90;;;;;;5070050;28;20021;-74
2022/09/13 04:05:45;;;;;;;22.10;19.50;;;18.10;99.90;;;;;;5052668;28;20493;-74
2022/09/13 04:08:10;;;;;;;21.15;19.15;;;18.10;99.90;;;;;;5064124;28;20025;-74
2022/09/13 04:10:37;;;;;;;21.60;19.60;;;18.10;99.90;;;;;;5052658;28;20032;-74
2022/09/13 04:13:03;;;;;;;22.45;20.08;;;18.00;99.90;;;;;;5051559;28;20436;-73
2022/09/13 04:15:32;;;;;;;21.25;19.15;;;19.20;99.90;;;;;;5052799;28;20546;-76
2022/09/13 04:17:58;;;;;;;21.27;19.13;;;18.00;99.90;;;;;;5052687;28;20032;-73
2022/09/13 04:20:24;;;;;;;20.52;18.50;;;18.10;99.90;;;;;;5071029;28;20024;-73
2022/09/13 04:22:57;;;;;;;21.55;19.40;;;18.00;99.90;;;;;;5072461;28;20051;-73
2022/09/13 04:25:23;;;;;;;22.95;20.85;;;18.00;99.90;;;;;;5061809;28;20456;-73
2022/09/13 04:27:58;;;;;;;21.10;19.00;;;18.00;99.90;;;;;;5068071;28;20029;-73
2022/09/13 04:30:24;;;;;;;22.58;20.05;;;18.00;99.90;;;;;;5071753;28;20055;-73
2022/09/13 04:32:50;;;;;;;21.80;19.70;;;18.00;99.90;;;;;;5061165;28;20051;-73
2022/09/13 04:35:16;;;;;;;22.40;20.17;;;18.00;99.90;;;;;;5072057;28;20109;-74
2022/09/13 04:37:43;;;;;;;23.55;20.75;;;18.00;99.90;;;;;;5071881;28;20020;-74
2022/09/13 04:40:09;;;;;;;23.92;21.60;;;17.90;99.90;;;;;;5060280;28;20029;-73
2022/09/13 04:42:34;;;;;;;24.30;21.83;;;18.00;99.90;;;;;;5071280;28;20033;-73
2022/09/13 04:45:00;;;;;;;23.52;21.02;;;18.00;99.90;;;;;;5072115;28;20055;-73
2022/09/13 04:47:25;;;;;;;23.05;20.38;;;18.70;99.90;;;;;;5072129;28;20465;-73
2022/09/13 04:49:51;;;;;;;21.27;19.17;;;18.10;99.90;;;;;;5072085;28;20083;-73
2022/09/13 04:52:16;;;;;;;23.58;20.02;;;17.90;99.90;;;;;;5071472;28;20036;-74
2022/09/13 04:54:42;;;;;;;20.20;18.10;;;17.90;99.90;;;;;;5065252;28;20025;-74
2022/09/13 04:57:08;;;;;;;22.85;19.77;;;18.00;99.90;;;;;;5064228;28;20032;-74
2022/09/13 04:59:33;;;;;;;21.73;19.55;;;18.50;99.90;;;;;;5052976;28;20090;-74
2022/09/13 05:01:59;;;;;;;25.77;19.02;;;18.00;99.90;;;;;;5051760;28;20378;-74
2022/09/13 05:04:24;;;;;;;21.33;18.88;;;17.90;99.90;;;;;;5051557;28;20029;-74
2022/09/13 05:06:50;;;;;;;21.25;19.20;;;18.10;99.90;;;;;;5050527;28;20056;-74
2022/09/13 05:09:16;;;;;;;20.70;18.65;;;18.00;99.90;;;;;;5048672;28;20394;-74
2022/09/13 05:11:42;;;;;;;22.67;20.27;;;18.00;99.90;;;;;;5061034;28;20131;-74
2022/09/13 05:14:11;;;;;;;20.23;18.33;;;18.30;99.90;;;;;;5061324;28;20060;-74
2022/09/13 05:16:37;;;;;;;23.00;18.75;;;18.00;99.90;;;;;;5051486;28;20052;-74
2022/09/13 05:19:03;;;;;;;21.10;18.95;;;18.00;99.90;;;;;;5058956;28;20063;-74
2022/09/13 05:21:29;;;;;;;23.02;19.08;;;18.20;99.90;;;;;;5069706;28;20091;-74
2022/09/13 05:23:56;;;;;;;22.08;20.00;;;18.00;99.90;;;;;;5070009;28;20478;-74
2022/09/13 05:26:24;;;;;;;21.15;19.00;;;18.10;99.90;;;;;;5071456;28;20032;-74
2022/09/13 05:28:49;;;;;;;20.15;18.15;;;18.30;99.90;;;;;;5071177;28;20023;-74
2022/09/13 05:31:18;;;;;;;20.08;18.17;;;18.10;99.90;;;;;;5071359;28;20491;-74
2022/09/13 05:33:45;;;;;;;20.98;18.83;;;18.00;99.90;;;;;;5070883;28;20027;-74
2022/09/13 05:36:10;;;;;;;19.77;17.90;;;18.00;99.90;;;;;;5054813;28;20544;-73
2022/09/13 05:38:36;;;;;;;21.13;19.15;;;18.00;99.90;;;;;;5065437;28;20063;-74
2022/09/13 05:41:03;;;;;;;20.10;18.10;;;18.10;99.90;;;;;;5071293;28;20040;-74
2022/09/13 05:43:31;;;;;;;20.42;18.35;;;18.10;99.90;;;;;;5071028;28;20052;-73
2022/09/13 05:46:01;;;;;;;21.05;18.70;;;18.10;99.90;;;;;;5070832;28;20044;-74
2022/09/13 05:48:26;;;;;;;21.80;19.70;;;18.20;99.90;;;;;;5070973;28;20047;-74
2022/09/13 05:50:52;;;;;;;21.05;18.95;;;18.20;99.90;;;;;;5070263;28;20465;-74
2022/09/13 05:53:17;;;;;;;22.67;19.92;;;18.20;99.90;;;;;;5070987;28;20052;-74
2022/09/13 05:55:43;;;;;;;23.60;19.15;;;18.20;99.90;;;;;;5069226;28;20021;-74
2022/09/13 05:58:08;;;;;;;20.67;18.58;;;18.20;99.90;;;;;;5070881;28;20103;-74
2022/09/13 06:00:34;;;;;;;21.48;18.52;;;18.30;99.90;;;;;;5070937;28;20051;-74
2022/09/13 06:02:59;;;;;;;22.35;19.00;;;18.30;99.90;;;;;;5070522;28;20032;-74
2022/09/13 06:05:25;;;;;;;20.75;18.58;;;18.40;99.90;;;;;;5055887;28;20044;-74
2022/09/13 06:07:50;;;;;;;20.65;18.55;;;18.40;99.90;;;;;;5048383;28;20493;-74
2022/09/13 06:10:16;;;;;;;21.70;19.75;;;18.40;99.90;;;;;;5051836;28;20024;-74
2022/09/13 06:12:42;;;;;;;21.35;19.27;;;18.50;99.90;;;;;;5065727;28;20024;-73
2022/09/13 06:15:08;;;;;;;22.15;19.42;;;18.60;99.90;;;;;;5070776;28;20033;-74
2022/09/13 06:17:33;;;;;;;23.40;20.98;;;18.60;99.90;;;;;;5061296;28;20036;-75
2022/09/13 06:19:59;;;;;;;22.23;20.02;;;18.60;99.90;;;;;;5064822;28;20028;-75
2022/09/13 06:22:24;;;;;;;22.27;20.05;;;18.30;99.90;;;;;;5070204;28;20399;-75
2022/09/13 06:24:50;;;;;;;23.45;20.98;;;18.40;99.90;;;;;;5070313;28;20024;-75
2022/09/13 06:27:15;;;;;;;21.13;18.33;;;18.70;99.90;;;;;;5067938;28;20024;-75
2022/09/13 06:29:41;;;;;;;22.00;19.08;;;18.60;99.90;;;;;;5070202;28;20408;-75
2022/09/13 06:32:06;;;;;;;22.85;20.65;;;18.80;99.90;;;;;;5069945;28;20027;-74
2022/09/13 06:34:32;;;;;;;24.83;19.85;;;19.00;99.90;;;;;;5069900;28;20020;-75
2022/09/13 06:36:58;;;;;;;22.23;20.10;;;18.90;99.90;;;;;;5068141;28;20527;-75
2022/09/13 06:39:23;;;;;;;22.63;20.00;;;19.40;99.90;;;;;;5056870;28;20036;-76
2022/09/13 06:41:49;;;;;;;23.08;20.70;;;19.00;99.90;;;;;;5066070;28;20051;-73
2022/09/13 06:44:14;;;;;;;24.50;21.90;;;19.00;99.90;;;;;;5053820;28;20053;-73
2022/09/13 06:46:40;;;;;;;24.75;20.35;;;19.00;99.90;;;;;;5049641;28;20025;-73
2022/09/13 06:49:08;;;;;;;22.85;20.52;;;19.00;99.90;;;;;;5049573;28;20108;-73
2022/09/13 06:51:34;;;;;;;22.70;20.60;;;19.10;99.90;;;;;;5049946;28;20059;-73
2022/09/13 06:54:02;;;;;;;22.23;19.98;;;19.20;99.90;;;;;;5049851;28;20485;-73
2022/09/13 06:56:31;;;;;;;26.33;21.30;;;19.30;99.90;;;;;;5054092;28;20393;-74
2022/09/13 06:59:03;;;;;;;24.75;21.85;;;19.40;99.90;;;;;;5062496;28;20063;-74
2022/09/13 07:01:37;;;;;;;24.75;22.17;;;19.30;99.90;;;;;;5050291;28;20098;-74
2022/09/13 07:04:08;;;;;;;23.73;21.27;;;19.40;99.90;;;;;;5063874;28;20021;-74
2022/09/13 07:06:36;;;;;;;26.98;22.67;;;19.40;99.90;;;;;;5055834;28;20060;-73
2022/09/13 07:09:04;;;;;;;24.77;22.17;;;19.50;99.90;;;;;;5056251;28;20029;-73
2022/09/13 07:11:33;;;;;;;26.23;23.52;;;19.60;99.90;;;;;;5049252;28;20024;-73
2022/09/13 07:14:00;;;;;;;23.30;21.02;;;19.70;99.90;;;;;;5053821;28;20017;-74
2022/09/13 07:16:28;;;;;;;26.63;22.92;;;19.70;99.90;;;;;;5060682;28;20437;-73
2022/09/13 07:18:59;;;;;;;25.35;22.15;;;19.80;99.90;;;;;;5051550;28;20139;-74
2022/09/13 07:21:25;;;;;;;25.65;22.60;;;19.80;99.90;;;;;;5060653;28;20044;-75
2022/09/13 07:23:54;;;;;;;25.92;23.00;;;19.90;99.90;;;;;;5055005;28;20134;-74
2022/09/13 07:26:20;;;;;;;25.58;22.88;;;20.00;99.90;;;;;;5053076;28;20659;-74
2022/09/13 07:28:49;;;;;;;26.02;23.38;;;19.90;99.90;;;;;;5050569;28;20390;-74
2022/09/13 07:31:21;;;;;;;26.17;23.50;;;19.90;99.90;;;;;;5050421;28;20029;-73
2022/09/13 07:33:51;;;;;;;29.35;23.42;;;19.90;99.90;;;;;;5048182;28;20024;-74
2022/09/13 07:36:17;;;;;;;27.45;24.27;;;20.20;99.90;;;;;;5048232;28;20028;-74
2022/09/13 07:38:46;;;;;;;28.27;23.88;;;19.90;99.90;;;;;;5053562;28;20025;-74
2022/09/13 07:41:14;;;;;;;26.77;23.63;;;20.00;99.90;;;;;;5051545;28;20063;-74
2022/09/13 07:43:40;;;;;;;26.83;24.02;;;20.00;99.90;;;;;;5051874;28;20041;-74
2022/09/13 07:46:09;;;;;;;28.58;23.67;;;21.50;99.90;;;;;;5052534;28;20035;-75
2022/09/13 07:48:37;;;;;;;29.17;25.80;;;20.00;99.90;;;;;;5053310;28;20019;-74
2022/09/13 07:51:08;;;;;;;26.92;23.95;;;20.00;99.90;;;;;;5063453;28;20472;-74
2022/09/13 07:53:35;;;;;;;27.77;24.83;;;20.00;99.90;;;;;;5065197;28;20404;-75
2022/09/13 07:56:10;;;;;;;26.35;23.42;;;20.80;99.90;;;;;;5050189;28;20025;-74
2022/09/13 07:58:37;;;;;;;26.60;23.13;;;20.20;99.90;;;;;;5062115;28;20032;-74
2022/09/13 08:01:21;;;;;;;30.52;25.08;;;20.20;99.90;;;;;;5063162;28;20099;-74
2022/09/13 08:03:55;;;;;;;28.33;23.75;;;20.40;99.90;;;;;;5052328;28;20492;-74
2022/09/13 08:06:22;;;;;;;30.27;22.85;;;20.30;99.90;;;;;;5042258;28;20029;-74
2022/09/13 08:08:48;;;;;;;26.55;21.05;;;20.50;99.90;;;;;;5062840;28;20025;-74
2022/09/13 08:11:20;;;;;;;21.48;18.35;;;20.60;99.90;;;;;;5051406;28;20075;-74
2022/09/13 08:13:46;;;;;;;21.65;17.73;;;20.80;99.90;;;;;;5047860;28;20358;-74
2022/09/13 08:16:13;;;;;;;17.08;15.25;;;21.00;99.90;;;;;;5059646;28;20513;-74
2022/09/13 08:18:48;;;;;;;20.30;16.83;;;21.20;99.90;;;;;;5057026;28;20020;-75
2022/09/13 08:21:14;;;;;;;15.07;12.63;;;21.30;99.90;;;;;;5070913;28;20028;-74
2022/09/13 08:23:40;;;;;;;12.65;10.65;;;21.40;99.90;;;;;;5072515;28;20074;-74
2022/09/13 08:26:08;;;;;;;13.50;9.80;;;21.60;99.90;;;;;;5073132;28;20108;-74
2022/09/13 08:28:34;;;;;;;22.10;11.30;;;21.70;99.90;;;;;;5069988;28;20027;-74
2022/09/13 08:31:05;;;;;;;14.90;12.93;;;21.50;99.90;;;;;;5064368;28;20036;-74
2022/09/13 08:33:32;;;;;;;14.48;11.68;;;21.70;99.90;;;;;;5064867;28;20036;-73
2022/09/13 08:35:58;;;;;;;15.00;12.05;;;21.70;99.90;;;;;;5053213;28;20386;-73
2022/09/13 08:38:23;;;;;;;11.75;8.90;;;21.70;99.90;;;;;;5058056;28;20817;-73
2022/09/13 08:40:58;;;;;;;12.55;8.65;;;21.80;99.90;;;;;;5051843;28;20068;-74
2022/09/13 08:43:48;;;;;;;10.75;9.65;;;21.80;99.90;;;;;;5048145;28;20063;-73
2022/09/13 08:46:23;;;;;;;13.05;10.93;;;21.90;99.90;;;;;;5051808;28;20027;-73
2022/09/13 08:48:53;;;;;;;18.48;12.77;;;21.90;99.90;;;;;;5050693;28;20028;-73
2022/09/13 08:51:46;;;;;;;13.65;12.27;;;22.00;99.90;;;;;;5045948;28;20401;-73
2022/09/13 08:54:14;;;;;;;16.60;12.25;;;22.10;99.90;;;;;;5047050;28;20041;-73
2022/09/13 08:56:58;;;;;;;14.18;12.68;;;22.10;99.90;;;;;;5050292;28;20057;-73
2022/09/13 08:59:45;;;;;;;15.10;13.27;;;22.20;99.90;;;;;;5056225;28;20034;-75
2022/09/13 09:02:16;;;;;;;15.48;12.88;;;22.20;99.90;;;;;;5063174;28;20093;-74
2022/09/13 09:04:49;;;;;;;14.77;13.00;;;22.20;99.90;;;;;;5062507;28;20478;-73
2022/09/13 09:07:21;;;;;;;15.02;13.50;;;22.20;99.90;;;;;;5056803;28;20027;-73
2022/09/13 09:09:58;;;;;;;16.38;14.48;;;22.30;99.90;;;;;;5061067;28;20032;-73
2022/09/13 09:12:51;;;;;;;16.40;14.68;;;22.20;99.90;;;;;;5045568;28;20094;-73
2022/09/13 09:15:17;;;;;;;16.42;14.57;;;22.30;99.90;;;;;;5039351;28;20094;-74
2022/09/13 09:17:54;;;;;;;16.10;13.95;;;22.20;99.90;;;;;;5050753;28;20025;-73
2022/09/13 09:20:38;;;;;;;16.55;14.88;;;22.20;99.90;;;;;;5057169;28;20044;-73
2022/09/13 09:23:34;;;;;;;17.85;14.68;;;22.30;99.90;;;;;;5051347;28;20130;-74
2022/09/13 09:26:25;;;;;;;18.73;15.65;;;22.30;99.90;;;;;;5056531;28;20028;-74
2022/09/13 09:29:18;;;;;;;18.17;16.25;;;22.40;99.90;;;;;;5055878;28;20489;-75
2022/09/13 09:31:57;;;;;;;17.75;15.85;;;22.50;99.90;;;;;;5051130;28;20047;-72
2022/09/13 09:34:44;;;;;;;16.33;14.70;;;22.50;99.90;;;;;;5057942;28;20028;-74
2022/09/13 09:37:16;;;;;;;16.75;15.25;;;22.50;99.90;;;;;;5049823;28;20028;-74
2022/09/13 09:39:43;;;;;;;17.00;15.35;;;22.50;99.90;;;;;;5049811;28;20414;-74
2022/09/13 09:42:21;;;;;;;17.50;15.38;;;22.40;99.90;;;;;;5050301;28;20033;-74
2022/09/13 09:44:59;;;;;;;17.05;14.82;;;22.40;99.90;;;;;;5052993;28;20047;-74
2022/09/13 09:47:27;;;;;;;17.05;14.25;;;22.30;99.90;;;;;;5053018;28;20037;-74
2022/09/13 09:50:13;;;;;;;13.80;12.35;;;22.20;99.90;;;;;;5049402;28;20025;-75
2022/09/13 09:52:52;;;;;;;14.80;9.80;;;22.30;99.90;;;;;;5048570;28;20025;-75
2022/09/13 09:55:44;;;;;;;10.15;9.15;;;22.30;99.90;;;;;;5050934;28;20032;-75
2022/09/13 09:58:11;;;;;;;14.02;8.85;;;22.40;99.90;;;;;;5049358;28;20029;-73
2022/09/13 10:00:51;;;;;;;9.77;8.90;;;22.40;99.90;;;;;;5049861;28;20021;-73
2022/09/13 10:03:19;;;;;;;9.65;8.48;;;22.40;99.90;;;;;;5058641;28;20123;-73
2022/09/13 10:05:45;;;;;;;10.77;8.35;;;22.60;99.90;;;;;;5059858;28;20023;-73
2022/09/13 10:08:27;;;;;;;9.00;7.75;;;22.50;99.90;;;;;;5059777;28;20543;-74
2022/09/13 10:10:56;;;;;;;8.88;7.90;;;22.80;99.90;;;;;;5057089;28;20587;-74
2022/09/13 10:13:23;;;;;;;10.88;8.27;;;22.60;99.90;;;;;;5063334;28;20056;-74
2022/09/13 10:15:54;;;;;;;10.85;6.53;;;22.60;99.90;;;;;;5056222;28;20498;-74
2022/09/13 10:18:25;;;;;;;7.53;6.82;;;23.60;99.90;;;;;;5062957;28;20035;-75
2022/09/13 10:21:27;;;;;;;5.95;5.38;;;22.70;99.90;;;;;;5050118;28;20017;-76
2022/09/13 10:24:16;;;;;;;6.30;5.65;;;23.00;99.90;;;;;;5054273;28;20040;-76
2022/09/13 10:26:41;;;;;;;12.45;6.13;;;23.30;99.20;;;;;;5054076;28;20029;-74
2022/09/13 10:29:15;;;;;;;6.75;6.13;;;23.20;99.30;;;;;;5050309;28;20024;-74
2022/09/13 10:31:42;;;;;;;;;;;23.80;99.70;;;;;;5052161;28;20100;-75
2022/09/13 10:34:21;;;;;;;7.25;5.43;;;22.90;99.70;;;;;;5050076;28;19928;-75
2022/09/13 10:37:16;;;;;;;10.48;5.78;;;23.60;99.90;;;;;;5052468;28;20025;-74
2022/09/13 10:40:02;;;;;;;5.85;4.95;;;23.00;99.10;;;;;;5048932;28;20039;-75
2022/09/13 10:42:29;;;;;;;6.78;5.60;;;23.00;99.10;;;;;;5056946;28;20159;-78
2022/09/13 10:45:03;;;;;;;6.95;6.25;;;23.10;99.40;;;;;;5060457;28;20071;-75
2022/09/13 10:47:48;;;;;;;;;;;23.20;98.60;;;;;;5052454;28;20024;-76
2022/09/13 10:50:22;;;;;;;6.28;4.70;;;23.30;98.80;;;;;;5051686;28;20366;-75
2022/09/13 10:52:58;;;;;;;5.82;4.85;;;23.30;99.10;;;;;;5054809;28;20029;-77
2022/09/13 10:55:28;;;;;;;7.63;5.65;;;23.20;98.90;;;;;;5057562;28;20625;-75
2022/09/13 10:58:01;;;;;;;6.97;4.60;;;23.30;98.00;;;;;;5067332;28;20069;-76
2022/09/13 11:00:51;;;;;;;4.97;4.45;;;23.20;97.90;;;;;;5058063;28;20347;-75
2022/09/13 11:03:54;;;;;;;5.57;3.55;;;23.30;98.00;;;;;;5040883;28;20536;-75
2022/09/13 11:06:43;;;;;;;5.33;4.43;;;23.10;98.40;;;;;;5008843;28;20541;-76
2022/09/13 11:09:16;;;;;;;4.50;3.38;;;24.90;98.00;;;;;;5007741;28;20037;-75
2022/09/13 11:11:57;;;;;;;3.20;2.78;;;23.60;98.10;;;;;;5014031;28;20072;-76
2022/09/13 11:14:34;;;;;;;4.57;2.85;;;23.70;97.20;;;;;;5006966;28;20589;-76
2022/09/13 11:17:24;;;;;;;4.35;2.40;;;23.70;96.80;;;;;;4988681;28;20563;-76
2022/09/13 11:20:11;;;;;;;5.32;2.33;;;23.90;96.50;;;;;;5008515;28;20026;-75
2022/09/13 11:23:04;;;;;;;3.20;1.80;;;24.30;96.00;;;;;;5007701;28;20045;-75
2022/09/13 11:25:56;;;;;;;3.45;1.40;;;24.10;95.70;;;;;;5007071;28;20447;-76
2022/09/13 11:28:32;;;;;;;2.67;1.42;;;24.30;95.90;;;;;;5000059;28;20092;-76
2022/09/13 11:31:09;;;;;;;4.40;2.22;;;24.30;96.60;;;;;;5007273;28;20487;-77
2022/09/13 11:33:56;;;;;;;2.90;1.83;;;24.20;95.20;;;;;;5015839;28;20053;-75
2022/09/13 11:36:37;;;;;;;4.30;1.75;;;24.00;95.60;;;;;;5001524;28;20049;-76
2022/09/13 11:39:42;;;;;;;3.72;1.48;;;23.90;95.90;;;;;;5003718;28;20478;-75
2022/09/13 11:42:13;;;;;;;3.75;1.33;;;23.60;96.00;;;;;;5049002;28;20029;-75
2022/09/13 11:45:07;;;;;;;1.58;1.38;;;23.60;96.00;;;;;;5047741;28;20106;-75
2022/09/13 11:47:47;;;;;;;4.70;1.73;;;24.40;97.10;;;;;;5046614;28;20032;-75
2022/09/13 11:50:13;;;;;;;1.15;0.90;;;23.80;96.90;;;;;;5051248;28;20055;-76
2022/09/13 11:52:38;;;;;;;4.97;1.23;;;23.90;96.20;;;;;;5050528;28;20458;-76
2022/09/13 11:55:09;;;;;;;2.03;1.05;;;24.00;95.90;;;;;;5048940;28;20489;-76
2022/09/13 11:57:42;;;;;;;1.25;1.15;;;24.00;95.80;;;;;;5053203;28;20021;-76
2022/09/13 12:00:27;;;;;;;1.85;1.00;;;23.90;96.10;;;;;;5058547;28;20496;-75
2022/09/13 12:03:13;;;;;;;1.27;0.70;;;24.00;95.30;;;;;;5058538;28;20033;-76
2022/09/13 12:05:51;;;;;;;0.77;0.70;;;23.90;95.30;;;;;;5058597;28;20481;-75
2022/09/13 12:08:31;;;;;;;1.20;0.82;;;24.40;96.00;;;;;;5056558;28;20032;-75
2022/09/13 12:11:03;;;;;;;1.15;0.82;;;24.10;95.10;;;;;;5049099;28;20033;-75
2022/09/13 12:13:40;;;;;;;1.40;0.93;;;24.10;95.60;;;;;;5046139;28;20028;-76
2022/09/13 12:16:13;;;;;;;0.77;0.40;;;24.30;95.40;;;;;;5045947;28;20104;-75
2022/09/13 12:18:56;;;;;;;1.48;0.77;;;24.60;95.10;;;;;;5051921;28;20053;-75
2022/09/13 12:21:32;;;;;;;1.13;0.50;;;24.50;94.80;;;;;;5041702;28;20112;-76
2022/09/13 12:24:06;;;;;;;1.52;0.57;;;24.50;93.70;;;;;;5046063;28;20270;-75
2022/09/13 12:26:53;;;;;;;3.67;0.90;;;24.80;94.50;;;;;;5050627;28;20489;-76
2022/09/13 12:29:38;;;;;;;2.00;0.63;;;24.70;93.50;;;;;;5062747;28;20032;-75
2022/09/13 12:32:06;;;;;;;1.73;0.80;;;24.50;93.60;;;;;;5055824;28;20029;-76
2022/09/13 12:34:37;;;;;;;3.72;1.02;;;24.50;94.00;;;;;;5058901;28;20037;-75
2022/09/13 12:37:24;;;;;;;1.02;0.60;;;24.50;94.40;;;;;;5065459;28;20035;-74
2022/09/13 12:40:09;;;;;;;1.23;0.82;;;24.40;93.70;;;;;;5055899;28;20029;-75
2022/09/13 12:42:43;;;;;;;2.72;0.80;;;24.50;94.40;;;;;;5051137;28;20397;-74
2022/09/13 12:45:26;;;;;;;3.13;0.80;;;24.40;93.40;;;;;;5050696;28;20048;-75
2022/09/13 12:48:18;;;;;;;1.80;0.82;;;24.50;93.40;;;;;;5041876;28;20397;-75
2022/09/13 12:50:50;;;;;;;5.88;0.80;;;24.40;93.40;;;;;;5053907;28;20064;-76
2022/09/13 12:53:36;;;;;;;1.35;0.85;;;24.30;93.80;;;;;;5066788;28;20036;-75
2022/09/13 12:56:28;;;;;;;1.55;0.82;;;24.30;93.20;;;;;;5059991;28;20390;-75
2022/09/13 12:59:19;;;;;;;2.25;0.70;;;24.30;93.20;;;;;;5050173;28;20017;-75
2022/09/13 13:01:48;;;;;;;4.65;0.77;;;24.40;93.10;;;;;;5059224;28;20033;-75
2022/09/13 13:04:16;;;;;;;0.98;0.57;;;24.50;93.40;;;;;;5051529;28;20017;-76
2022/09/13 13:06:53;;;;;;;5.05;0.73;;;25.60;93.30;;;;;;5051966;28;20055;-77